createdAt,value
2022-09-07T00:00:37.965Z,16.40
2022-09-07T00:03:05.887Z,13.30
2022-09-07T00:05:33.479Z,15.35
2022-09-07T00:08:00.808Z,14.75
2022-09-07T00:10:28.100Z,15.05
2022-09-07T00:12:55.223Z,10.73
2022-09-07T00:15:23.846Z,13.25
2022-09-07T00:17:50.922Z,14.32
2022-09-07T00:20:18.219Z,11.73
2022-09-07T00:22:46.415Z,11.55
2022-09-07T00:25:13.520Z,13.20
2022-09-07T00:27:41.479Z,13.38
2022-09-07T00:30:09.021Z,13.50
2022-09-07T00:32:36.068Z,12.82
2022-09-07T00:35:03.473Z,11.20
2022-09-07T00:37:30.631Z,10.48
2022-09-07T00:39:57.863Z,11.57
2022-09-07T00:42:25.045Z,9.98
2022-09-07T00:45:10.518Z,9.93
2022-09-07T00:48:18.306Z,9.85
2022-09-07T00:50:51.397Z,9.88
2022-09-07T00:53:23.888Z,10.02
2022-09-07T00:55:52.971Z,9.32
2022-09-07T00:58:22.220Z,9.52
2022-09-07T01:00:51.058Z,9.63
2022-09-07T01:03:23.228Z,11.65
2022-09-07T01:05:59.577Z,7.95
2022-09-07T01:08:27.275Z,8.02
2022-09-07T01:10:55.699Z,8.27
2022-09-07T01:13:23.227Z,9.25
2022-09-07T01:16:27.663Z,10.20
2022-09-07T01:19:09.307Z,9.70
2022-09-07T01:21:57.821Z,9.38
2022-09-07T01:24:42.876Z,9.80
2022-09-07T01:27:47.317Z,7.53
2022-09-07T01:30:23.280Z,9.55
2022-09-07T01:33:09.267Z,7.82
2022-09-07T01:35:48.318Z,10.43
2022-09-07T01:38:27.997Z,10.57
2022-09-07T01:41:01.167Z,9.27
2022-09-07T01:43:45.644Z,9.13
2022-09-07T01:46:21.348Z,11.88
2022-09-07T01:48:53.287Z,9.63
2022-09-07T01:51:23.624Z,9.85
2022-09-07T01:53:57.021Z,7.70
2022-09-07T01:56:31.754Z,12.50
2022-09-07T01:59:10.150Z,9.10
2022-09-07T02:01:45.958Z,9.30
2022-09-07T02:04:38.756Z,9.43
2022-09-07T02:07:17.946Z,7.22
2022-09-07T02:10:05.877Z,9.57
2022-09-07T02:12:51.180Z,10.63
2022-09-07T02:15:25.280Z,9.18
2022-09-07T02:17:58.746Z,9.93
2022-09-07T02:20:31.612Z,7.78
2022-09-07T02:23:02.897Z,11.13
2022-09-07T02:25:38.102Z,7.95
2022-09-07T02:28:10.759Z,8.85
2022-09-07T02:30:38.303Z,7.70
2022-09-07T02:33:06.196Z,10.68
2022-09-07T02:35:34.128Z,11.45
2022-09-07T02:38:05.138Z,8.80
2022-09-07T02:40:32.788Z,10.30
2022-09-07T02:43:02.726Z,7.85
2022-09-07T02:45:52.303Z,8.60
2022-09-07T02:48:45.341Z,7.60
2022-09-07T02:51:40.947Z,13.40
2022-09-07T02:54:44.164Z,9.00
2022-09-07T02:57:26.600Z,8.38
2022-09-07T03:00:09.900Z,9.68
2022-09-07T03:02:58.426Z,8.68
2022-09-07T03:05:55.416Z,9.30
2022-09-07T03:08:32.357Z,12.23
2022-09-07T03:11:00.241Z,10.43
2022-09-07T03:13:29.690Z,11.43
2022-09-07T03:15:57.259Z,9.38
2022-09-07T03:18:25.754Z,8.32
2022-09-07T03:20:53.707Z,9.73
2022-09-07T03:23:20.966Z,7.07
2022-09-07T03:25:49.357Z,6.50
2022-09-07T03:28:16.508Z,9.55
2022-09-07T03:30:44.669Z,10.52
2022-09-07T03:33:12.117Z,9.90
2022-09-07T03:35:39.236Z,6.63
2022-09-07T03:38:06.280Z,9.07
2022-09-07T03:40:33.346Z,8.70
2022-09-07T03:43:00.427Z,6.20
2022-09-07T03:45:27.504Z,9.70
2022-09-07T03:47:54.598Z,7.70
2022-09-07T03:50:21.686Z,9.32
2022-09-07T03:52:48.746Z,6.85
2022-09-07T03:55:15.886Z,7.78
2022-09-07T03:57:43.794Z,7.40
2022-09-07T04:00:11.628Z,8.20
2022-09-07T04:02:41.921Z,6.63
2022-09-07T04:05:09.495Z,6.93
2022-09-07T04:07:36.867Z,7.30
2022-09-07T04:10:04.397Z,8.23
2022-09-07T04:12:31.473Z,7.85
2022-09-07T04:14:58.578Z,7.65
2022-09-07T04:17:25.697Z,7.07
2022-09-07T04:19:52.686Z,7.85
2022-09-07T04:22:19.778Z,7.80
2022-09-07T04:24:46.834Z,7.47
2022-09-07T04:27:13.958Z,5.63
2022-09-07T04:29:41.017Z,7.40
2022-09-07T04:32:11.391Z,11.10
2022-09-07T04:34:40.683Z,6.60
2022-09-07T04:37:07.813Z,7.65
2022-09-07T04:39:35.628Z,8.27
2022-09-07T04:42:02.789Z,9.48
2022-09-07T04:44:29.798Z,7.95
2022-09-07T04:46:57.047Z,8.20
2022-09-07T04:49:24.109Z,7.18
2022-09-07T04:51:51.230Z,7.95
2022-09-07T04:54:18.280Z,12.88
2022-09-07T04:56:45.470Z,9.65
2022-09-07T04:59:12.730Z,10.93
2022-09-07T05:01:40.203Z,9.50
2022-09-07T05:04:07.267Z,9.43
2022-09-07T05:06:34.781Z,8.60
2022-09-07T05:09:01.906Z,6.15
2022-09-07T05:11:30.103Z,7.65
2022-09-07T05:13:59.039Z,8.40
2022-09-07T05:16:27.071Z,11.55
2022-09-07T05:19:01.363Z,10.23
2022-09-07T05:21:34.078Z,9.20
2022-09-07T05:24:01.641Z,7.05
2022-09-07T05:26:30.854Z,8.20
2022-09-07T05:31:48.367Z,8.30
2022-09-07T05:34:31.564Z,8.35
2022-09-07T05:36:59.617Z,7.68
2022-09-07T05:39:27.052Z,8.98
2022-09-07T05:41:54.363Z,8.80
2022-09-07T05:47:09.054Z,7.13
2022-09-07T05:49:36.094Z,7.03
2022-09-07T05:52:03.725Z,6.00
2022-09-07T05:54:30.754Z,7.00
2022-09-07T05:56:57.790Z,8.43
2022-09-07T05:59:24.944Z,13.63
2022-09-07T06:01:52.011Z,7.25
2022-09-07T06:04:19.276Z,14.00
2022-09-07T06:07:04.558Z,10.13
2022-09-07T06:09:33.667Z,6.38
2022-09-07T06:12:00.818Z,6.22
2022-09-07T06:14:27.866Z,8.05
2022-09-07T06:16:54.956Z,7.55
2022-09-07T06:19:22.114Z,8.80
2022-09-07T06:21:49.206Z,12.88
2022-09-07T06:24:16.392Z,9.32
2022-09-07T06:26:43.594Z,8.77
2022-09-07T06:29:10.810Z,8.18
2022-09-07T06:34:25.843Z,5.63
2022-09-07T06:36:53.105Z,6.57
2022-09-07T06:39:20.170Z,7.40
2022-09-07T06:42:02.582Z,5.85
2022-09-07T06:44:31.806Z,4.60
2022-09-07T06:51:56.454Z,5.43
2022-09-07T06:57:10.769Z,6.25
2022-09-07T06:59:38.671Z,7.57
2022-09-07T07:02:07.296Z,6.60
2022-09-07T07:04:40.322Z,5.25
2022-09-07T07:07:14.680Z,4.75
2022-09-07T07:09:42.280Z,6.55
2022-09-07T07:12:10.755Z,5.22
2022-09-07T07:14:39.864Z,3.83
2022-09-07T07:17:10.527Z,5.72
2022-09-07T07:19:37.672Z,4.90
2022-09-07T07:22:18.703Z,4.50
2022-09-07T07:24:51.909Z,5.88
2022-09-07T07:27:19.112Z,4.60
2022-09-07T07:29:46.331Z,3.53
2022-09-07T07:32:13.456Z,4.50
2022-09-07T07:34:40.525Z,4.13
2022-09-07T07:37:07.534Z,5.75
2022-09-07T07:42:22.122Z,5.50
2022-09-07T07:44:49.232Z,5.95
2022-09-07T07:47:16.382Z,4.53
2022-09-07T07:49:43.547Z,3.00
2022-09-07T07:54:57.504Z,3.35
2022-09-07T07:57:24.646Z,3.72
2022-09-07T07:59:52.085Z,3.20
2022-09-07T08:02:19.190Z,6.57
2022-09-07T08:04:46.330Z,2.53
2022-09-07T08:07:13.510Z,4.57
2022-09-07T08:09:41.930Z,2.67
2022-09-07T08:12:11.521Z,2.15
2022-09-07T08:14:42.935Z,4.72
2022-09-07T08:17:14.940Z,6.38
2022-09-07T08:19:42.339Z,6.60
2022-09-07T08:22:10.974Z,2.38
2022-09-07T08:24:38.100Z,4.40
2022-09-07T08:27:05.516Z,2.47
2022-09-07T08:29:35.207Z,4.50
2022-09-07T08:32:05.202Z,4.20
2022-09-07T08:34:35.226Z,7.18
2022-09-07T08:37:02.260Z,2.45
2022-09-07T08:39:30.098Z,4.88
2022-09-07T08:42:03.495Z,8.63
2022-09-07T08:44:49.030Z,4.53
2022-09-07T08:47:32.264Z,3.03
2022-09-07T08:50:33.973Z,3.65
2022-09-07T08:53:14.604Z,2.90
2022-09-07T08:55:49.561Z,3.75
2022-09-07T08:58:48.216Z,5.07
2022-09-07T09:01:33.290Z,3.55
2022-09-07T09:04:17.904Z,5.80
2022-09-07T09:07:00.861Z,2.95
2022-09-07T09:09:52.038Z,5.32
2022-09-07T09:12:37.841Z,4.32
2022-09-07T09:15:32.410Z,2.13
2022-09-07T09:18:22.280Z,4.55
2022-09-07T09:20:52.523Z,3.50
2022-09-07T09:23:24.099Z,2.42
2022-09-07T09:25:56.860Z,4.50
2022-09-07T09:28:26.559Z,2.97
2022-09-07T09:30:56.063Z,4.18
2022-09-07T09:33:26.229Z,6.18
2022-09-07T09:35:56.535Z,3.58
2022-09-07T09:40:58.448Z,4.55
2022-09-07T09:43:32.725Z,4.03
2022-09-07T09:46:17.463Z,9.20
2022-09-07T09:48:53.867Z,4.35
2022-09-07T09:54:25.494Z,6.07
2022-09-07T09:56:53.000Z,5.32
2022-09-07T10:05:31.351Z,5.00
2022-09-07T10:07:58.753Z,2.22
2022-09-07T10:10:27.699Z,3.70
2022-09-07T10:12:56.164Z,4.32
2022-09-07T10:15:41.897Z,4.72
2022-09-07T10:18:30.377Z,3.15
2022-09-07T10:21:21.049Z,2.28
2022-09-07T10:23:49.333Z,5.80
2022-09-07T10:26:32.301Z,2.70
2022-09-07T10:29:13.183Z,3.55
2022-09-07T10:32:06.613Z,4.53
2022-09-07T10:34:56.868Z,2.28
2022-09-07T10:37:53.111Z,1.73
2022-09-07T10:40:43.008Z,3.92
2022-09-07T10:43:22.143Z,4.20
2022-09-07T10:46:04.838Z,3.07
2022-09-07T10:48:36.097Z,1.75
2022-09-07T10:51:14.565Z,3.92
2022-09-07T10:57:04.075Z,3.85
2022-09-07T11:03:30.118Z,4.53
2022-09-07T11:06:15.520Z,8.40
2022-09-07T11:09:17.348Z,5.43
2022-09-07T11:12:04.282Z,4.28
2022-09-07T11:14:55.050Z,5.72
2022-09-07T11:20:09.911Z,2.03
2022-09-07T11:22:47.722Z,4.32
2022-09-07T11:25:35.607Z,1.50
2022-09-07T11:28:13.422Z,1.70
2022-09-07T11:30:50.051Z,2.42
2022-09-07T11:33:24.989Z,1.90
2022-09-07T11:36:02.438Z,4.18
2022-09-07T11:38:39.537Z,4.13
2022-09-07T11:41:15.453Z,3.78
2022-09-07T11:43:47.312Z,1.48
2022-09-07T11:46:24.283Z,5.05
2022-09-07T11:48:54.906Z,4.13
2022-09-07T11:51:39.890Z,2.78
2022-09-07T11:54:43.992Z,2.00
2022-09-07T11:57:38.895Z,3.55
2022-09-07T12:00:11.408Z,3.25
2022-09-07T12:03:17.973Z,2.53
2022-09-07T12:06:25.778Z,1.60
2022-09-07T12:09:07.922Z,3.72
2022-09-07T12:12:12.586Z,3.47
2022-09-07T12:15:04.380Z,2.38
2022-09-07T12:18:01.078Z,4.07
2022-09-07T12:20:48.895Z,1.95
2022-09-07T12:23:15.862Z,4.60
2022-09-07T12:25:45.228Z,3.78
2022-09-07T12:28:24.431Z,5.87
2022-09-07T12:31:05.933Z,4.18
2022-09-07T12:33:36.044Z,2.65
2022-09-07T12:36:28.935Z,6.63
2022-09-07T12:39:20.980Z,4.25
2022-09-07T12:42:31.948Z,3.65
2022-09-07T12:47:30.118Z,3.47
2022-09-07T12:50:06.328Z,7.60
2022-09-07T12:52:36.257Z,4.72
2022-09-07T12:56:15.504Z,7.57
2022-09-07T12:58:25.281Z,8.50
2022-09-07T13:01:10.792Z,6.05
2022-09-07T13:03:56.377Z,7.80
2022-09-07T13:07:10.745Z,9.30
2022-09-07T13:09:41.919Z,6.90
2022-09-07T13:15:44.009Z,3.92
2022-09-07T13:18:32.640Z,5.00
2022-09-07T13:21:08.396Z,3.20
2022-09-07T13:23:49.608Z,5.53
2022-09-07T13:26:55.076Z,4.25
2022-09-07T13:29:31.736Z,3.45
2022-09-07T13:33:07.938Z,5.75
2022-09-07T13:35:18.418Z,3.97
2022-09-07T13:37:59.239Z,7.25
2022-09-07T13:40:32.490Z,5.32
2022-09-07T13:43:01.068Z,3.28
2022-09-07T13:45:36.899Z,3.72
2022-09-07T13:48:25.449Z,12.85
2022-09-07T13:51:17.155Z,2.13
2022-09-07T13:53:56.315Z,3.78
2022-09-07T13:56:47.970Z,6.65
2022-09-07T13:59:21.725Z,5.68
2022-09-07T14:01:50.778Z,2.55
2022-09-07T14:04:20.617Z,3.90
2022-09-07T14:06:47.650Z,2.28
2022-09-07T14:09:16.279Z,5.30
2022-09-07T14:11:56.879Z,6.80
2022-09-07T14:14:29.737Z,3.55
2022-09-07T14:17:04.763Z,3.13
2022-09-07T14:19:42.576Z,2.08
2022-09-07T14:22:22.056Z,5.38
2022-09-07T14:24:53.499Z,2.87
2022-09-07T14:27:39.558Z,5.07
2022-09-07T14:30:19.732Z,3.28
2022-09-07T14:32:53.400Z,2.53
2022-09-07T14:35:23.581Z,4.03
2022-09-07T14:37:51.269Z,7.45
2022-09-07T14:40:22.799Z,3.55
2022-09-07T14:42:51.216Z,5.43
2022-09-07T14:45:31.066Z,3.45
2022-09-07T14:47:58.608Z,2.05
2022-09-07T14:50:25.524Z,5.07
2022-09-07T14:55:44.479Z,4.93
2022-09-07T14:58:14.235Z,3.33
2022-09-07T15:03:59.286Z,2.55
2022-09-07T15:09:36.415Z,2.58
2022-09-07T15:12:09.437Z,4.13
2022-09-07T15:14:36.626Z,3.35
2022-09-07T15:19:51.345Z,3.22
2022-09-07T15:22:19.113Z,4.10
2022-09-07T15:24:49.992Z,4.30
2022-09-07T15:27:21.928Z,4.00
2022-09-07T15:29:49.073Z,4.10
2022-09-07T15:32:18.196Z,5.18
2022-09-07T15:34:45.578Z,4.15
2022-09-07T15:40:01.473Z,3.42
2022-09-07T15:45:16.628Z,4.03
2022-09-07T15:47:48.171Z,5.38
2022-09-07T15:50:18.699Z,5.05
2022-09-07T15:52:46.378Z,5.63
2022-09-07T15:55:14.457Z,4.38
2022-09-07T16:00:32.119Z,7.95
2022-09-07T16:03:08.102Z,6.30
2022-09-07T16:05:36.081Z,8.23
2022-09-07T16:10:55.689Z,3.25
2022-09-07T16:13:24.549Z,4.40
2022-09-07T16:15:52.084Z,4.32
2022-09-07T16:18:19.373Z,3.58
2022-09-07T16:20:47.294Z,3.47
2022-09-07T16:23:16.829Z,7.00
2022-09-07T16:25:57.310Z,5.35
2022-09-07T16:28:24.734Z,9.48
2022-09-07T16:30:51.810Z,9.02
2022-09-07T16:33:18.956Z,6.22
2022-09-07T16:35:59.476Z,9.27
2022-09-07T16:41:20.639Z,5.88
2022-09-07T16:43:47.947Z,10.05
2022-09-07T16:46:17.770Z,5.57
2022-09-07T16:48:45.587Z,6.50
2022-09-07T16:51:14.858Z,7.28
2022-09-07T16:53:42.886Z,2.78
2022-09-07T16:56:16.984Z,3.85
2022-09-07T16:58:46.300Z,2.00
2022-09-07T17:01:16.230Z,4.18
2022-09-07T17:03:44.077Z,7.80
2022-09-07T17:06:12.795Z,6.70
2022-09-07T17:08:40.735Z,6.50
2022-09-07T17:11:10.611Z,3.25
2022-09-07T17:13:39.566Z,5.65
2022-09-07T17:16:12.044Z,2.63
2022-09-07T17:21:36.630Z,2.88
2022-09-07T17:24:05.644Z,2.85
2022-09-07T17:26:32.969Z,3.25
2022-09-07T17:29:01.123Z,3.78
2022-09-07T17:34:19.884Z,3.65
2022-09-07T17:36:47.646Z,2.25
2022-09-07T17:39:17.735Z,3.22
2022-09-07T17:41:47.184Z,4.07
2022-09-07T17:44:14.510Z,4.95
2022-09-07T17:46:41.635Z,9.70
2022-09-07T17:49:16.888Z,5.68
2022-09-07T17:51:45.522Z,2.85
2022-09-07T17:54:15.907Z,3.95
2022-09-07T18:01:58.582Z,4.60
2022-09-07T18:04:26.161Z,3.28
2022-09-07T18:06:54.522Z,3.85
2022-09-07T18:09:22.044Z,4.85
2022-09-07T18:11:50.297Z,7.07
2022-09-07T18:14:19.518Z,6.95
2022-09-07T18:16:50.110Z,6.05
2022-09-07T18:19:18.703Z,6.32
2022-09-07T18:21:48.104Z,6.13
2022-09-07T18:24:18.899Z,7.57
2022-09-07T18:26:51.796Z,10.05
2022-09-07T18:29:29.513Z,6.07
2022-09-07T18:31:59.639Z,9.63
2022-09-07T18:34:28.787Z,9.23
2022-09-07T18:36:56.153Z,14.23
2022-09-07T18:39:23.326Z,6.13
2022-09-07T18:41:50.582Z,9.02
2022-09-07T18:47:06.599Z,12.23
2022-09-07T18:49:34.380Z,7.25
2022-09-07T18:54:50.319Z,7.20
2022-09-07T18:57:17.506Z,11.15
2022-09-07T18:59:44.830Z,8.55
2022-09-07T19:02:12.405Z,15.45
2022-09-07T19:07:29.934Z,7.72
2022-09-07T19:09:58.371Z,6.95
2022-09-07T19:12:25.421Z,7.50
2022-09-07T19:14:52.527Z,5.30
2022-09-07T19:17:19.777Z,7.03
2022-09-07T19:19:47.279Z,8.75
2022-09-07T19:22:14.391Z,7.05
2022-09-07T19:24:41.470Z,9.18
2022-09-07T19:27:08.457Z,7.63
2022-09-07T19:29:35.681Z,5.72
2022-09-07T19:32:07.006Z,5.28
2022-09-07T19:34:36.573Z,5.70
2022-09-07T19:37:06.987Z,7.23
2022-09-07T19:42:02.748Z,8.05
2022-09-07T19:44:30.028Z,7.25
2022-09-07T19:46:57.266Z,7.30
2022-09-07T19:49:24.543Z,9.55
2022-09-07T19:51:52.294Z,8.43
2022-09-07T19:54:19.624Z,7.60
2022-09-07T19:56:46.964Z,5.90
2022-09-07T19:59:14.711Z,5.93
2022-09-07T20:01:46.479Z,10.43
2022-09-07T20:04:20.342Z,5.45
2022-09-07T20:06:50.386Z,10.05
2022-09-07T20:09:19.093Z,5.57
2022-09-07T20:11:47.846Z,4.53
2022-09-07T20:14:18.573Z,7.38
2022-09-07T20:16:45.708Z,8.45
2022-09-07T20:19:16.390Z,12.85
2022-09-07T20:21:43.688Z,8.43
2022-09-07T20:24:14.795Z,8.07
2022-09-07T20:26:41.897Z,5.22
2022-09-07T20:29:27.682Z,7.78
2022-09-07T20:31:59.314Z,5.25
2022-09-07T20:34:27.588Z,5.60
2022-09-07T20:36:55.184Z,5.40
2022-09-07T20:39:22.288Z,6.32
2022-09-07T20:41:49.476Z,6.13
2022-09-07T20:44:17.379Z,7.75
2022-09-07T20:46:44.643Z,7.95
2022-09-07T20:49:11.832Z,8.75
2022-09-07T20:51:39.132Z,7.00
2022-09-07T20:54:07.373Z,9.45
2022-09-07T20:56:34.893Z,11.35
2022-09-07T20:59:03.753Z,9.27
2022-09-07T21:01:32.310Z,6.70
2022-09-07T21:04:02.152Z,8.18
2022-09-07T21:06:31.089Z,8.52
2022-09-07T21:08:58.635Z,7.15
2022-09-07T21:11:29.281Z,7.80
2022-09-07T21:13:58.514Z,7.72
2022-09-07T21:16:26.607Z,9.20
2022-09-07T21:18:56.547Z,7.43
2022-09-07T21:21:24.961Z,7.07
2022-09-07T21:24:00.289Z,8.88
2022-09-07T21:26:28.667Z,9.07
2022-09-07T21:28:57.467Z,8.05
2022-09-07T21:31:25.569Z,10.05
2022-09-07T21:33:57.853Z,7.97
2022-09-07T21:36:25.758Z,6.70
2022-09-07T21:38:54.453Z,13.07
2022-09-07T21:41:23.318Z,8.88
2022-09-07T21:43:55.481Z,11.10
2022-09-07T21:46:23.085Z,7.90
2022-09-07T21:48:50.236Z,8.00
2022-09-07T21:51:17.734Z,6.75
2022-09-07T21:53:44.780Z,8.80
2022-09-07T21:56:14.530Z,11.90
2022-09-07T21:58:43.850Z,10.77
2022-09-07T22:01:17.135Z,7.30
2022-09-07T22:03:46.656Z,8.43
2022-09-07T22:06:15.073Z,9.90
2022-09-07T22:08:42.916Z,10.02
2022-09-07T22:11:13.787Z,8.65
2022-09-07T22:13:41.606Z,12.50
2022-09-07T22:16:09.271Z,8.80
2022-09-07T22:18:38.108Z,10.15
2022-09-07T22:21:15.752Z,8.60
2022-09-07T22:23:45.670Z,7.97
2022-09-07T22:26:14.406Z,8.55
2022-09-07T22:28:42.234Z,8.35
2022-09-07T22:31:15.511Z,9.60
2022-09-07T22:33:43.568Z,9.05
2022-09-07T22:36:15.160Z,5.00
2022-09-07T22:38:44.043Z,8.02
2022-09-07T22:41:22.305Z,7.28
2022-09-07T22:43:51.136Z,8.98
2022-09-07T22:46:20.527Z,9.32
2022-09-07T22:48:48.518Z,13.77
2022-09-07T22:51:16.558Z,9.48
2022-09-07T22:53:44.699Z,10.65
2022-09-07T22:56:20.529Z,9.50
2022-09-07T22:58:50.228Z,8.43
2022-09-07T23:01:17.989Z,10.90
2022-09-07T23:03:45.713Z,12.93
2022-09-07T23:06:23.391Z,8.82
2022-09-07T23:08:51.600Z,11.27
2022-09-07T23:11:20.030Z,8.82
2022-09-07T23:13:51.261Z,10.90
2022-09-07T23:16:18.494Z,15.45
2022-09-07T23:18:46.293Z,12.57
2022-09-07T23:21:13.379Z,9.65
2022-09-07T23:23:40.638Z,10.40
2022-09-07T23:26:07.744Z,8.60
2022-09-07T23:28:35.149Z,8.30
2022-09-07T23:31:02.454Z,10.30
2022-09-07T23:33:30.581Z,8.05
2022-09-07T23:36:04.698Z,11.90
2022-09-07T23:38:32.615Z,13.38
2022-09-07T23:41:00.380Z,9.55
2022-09-07T23:43:29.090Z,11.75
2022-09-07T23:45:56.690Z,11.13
2022-09-07T23:48:24.166Z,9.77
2022-09-07T23:50:51.629Z,13.85
2022-09-07T23:53:19.261Z,9.95
2022-09-07T23:55:50.386Z,9.15
2022-09-07T23:58:18.148Z,10.52
